»·PEaware :: N122WM L52-L88

N122WM :: L52-L88

FLIGHT INFORMATION

Flight Status: Arrived
Operator: Privately registered:
United States
More flights under this callsign
Pilot: Chad H. (22814)
Aircraft: CESSNA 172 SKYHAWK
(C172)
More flights by this aircraft type
Origin: L52 Oceano Co
United States
Destination: L88 New Cuyama
United States
More flights between these airports :: More routes between these airports
Route:
File this flight plan on PilotEdge
Remarks:
Altitude:
(Current/Filed)
6,000ft
Speed:
(Current/Filed)
115kts
Departed: 02-Jan-19 01:03 PM
Arrived: 02-Jan-19 01:32 PM
Distance/Time
Traveled:
47nm/0:29
Distance/Time
To Go:
Arrived

Flight Plot

Page will automatically refresh every two minutes.


Map Options




Map Legend


Flown Route
Filed Route
Departure Airport
Arrival Airport
Navaid (VOR, NDB)
Fix

Horizontal Profiles

Position Reports

Time Latitude Longitude Heading Altitude Ground
Speed
02-Jan-19 12:53 35.103159 -120.624080 31 15ft 0kts
02-Jan-19 12:54 35.103159 -120.624080 31 15ft 0kts
02-Jan-19 12:55 35.103159 -120.624080 31 15ft 0kts
02-Jan-19 12:56 35.103159 -120.624080 31 15ft 0kts
02-Jan-19 12:57 35.103159 -120.624080 31 15ft 0kts
02-Jan-19 12:58 35.103159 -120.624080 31 15ft 0kts
02-Jan-19 12:59 35.101961 -120.623958 158 14ft 1kts
02-Jan-19 13:00 35.099585 -120.619550 67 17ft 6kts
02-Jan-19 13:01 35.100089 -120.619594 300 17ft 3kts
02-Jan-19 13:02 35.112130 -120.633553 4 348ft 81kts
02-Jan-19 13:03 35.112215 -120.610249 130 855ft 96kts
02-Jan-19 13:04 35.096398 -120.582903 109 1360ft 100kts
02-Jan-19 13:05 35.089403 -120.549498 100 1863ft 102kts
02-Jan-19 13:06 35.083417 -120.514318 100 2374ft 114kts
02-Jan-19 13:07 35.077002 -120.476465 99 3001ft 111kts
02-Jan-19 13:08 35.070862 -120.440218 99 3699ft 107kts
02-Jan-19 13:09 35.064740 -120.404109 98 4400ft 109kts
02-Jan-19 13:10 35.058621 -120.368133 98 5033ft 111kts
02-Jan-19 13:11 35.051993 -120.329348 99 5340ft 119kts
02-Jan-19 13:12 35.045135 -120.289224 99 5511ft 125kts
02-Jan-19 13:13 35.037957 -120.247398 99 5509ft 126kts
02-Jan-19 13:14 35.030756 -120.205425 99 5506ft 125kts
02-Jan-19 13:15 35.023888 -120.165487 100 5501ft 124kts
02-Jan-19 13:16 35.017087 -120.126156 101 5496ft 114kts
02-Jan-19 13:17 35.010461 -120.087744 101 5492ft 115kts
02-Jan-19 13:18 35.003816 -120.049345 102 5487ft 115kts
02-Jan-19 13:19 34.996720 -120.008467 103 5484ft 132kts
02-Jan-19 13:20 34.988740 -119.962609 103 5153ft 139kts
02-Jan-19 13:21 34.980922 -119.917690 103 4977ft 130kts
02-Jan-19 13:22 34.973062 -119.872755 104 4609ft 135kts
02-Jan-19 13:23 34.965670 -119.830587 104 4100ft 124kts
02-Jan-19 13:24 34.958525 -119.789862 104 3598ft 123kts
02-Jan-19 13:25 34.951473 -119.749728 104 3090ft 118kts
02-Jan-19 13:26 34.943855 -119.715005 114 2835ft 103kts
02-Jan-19 13:27 34.932678 -119.684568 113 2747ft 96kts
02-Jan-19 13:28 34.923371 -119.653683 90 2848ft 97kts
02-Jan-19 13:29 34.937033 -119.654285 246 2599ft 88kts
02-Jan-19 13:30 34.936715 -119.677809 293 2282ft 65kts
02-Jan-19 13:31 34.941415 -119.689154 295 2162ft 30kts
02-Jan-19 13:32 34.942721 -119.691495 18 2154ft 11kts
02-Jan-19 13:33 34.943070 -119.691066 60 2154ft 0kts
02-Jan-19 13:34 34.943070 -119.691066 60 2154ft 0kts
02-Jan-19 13:35 34.943070 -119.691066 60 2154ft 0kts
02-Jan-19 13:36 34.943070 -119.691066 60 2154ft 0kts
02-Jan-19 13:38 34.943070 -119.691066 60 2154ft 0kts
02-Jan-19 13:39 34.943070 -119.691066 60 2154ft 0kts
02-Jan-19 13:40 34.943070 -119.691066 60 2154ft 0kts
02-Jan-19 13:41 34.943070 -119.691066 60 2154ft 0kts
02-Jan-19 13:42 34.943070 -119.691066 60 2154ft 0kts
02-Jan-19 13:43 34.943070 -119.691066 60 2154ft 0kts
02-Jan-19 13:44 34.943070 -119.691066 60 2154ft 0kts
02-Jan-19 13:45 34.943070 -119.691066 60 2154ft 0kts
02-Jan-19 13:46 34.943070 -119.691066 60 2154ft 0kts
02-Jan-19 13:47 34.943070 -119.691066 60 2154ft 0kts

Navigation Log

Ident Type
Flight plan parsing failed, navigation log unavailable